createdAt,value
2018-03-22T00:00:36.028Z,73.87
2018-03-22T00:02:37.839Z,68.77
2018-03-22T00:04:38.836Z,69.57
2018-03-22T00:06:39.864Z,56.70
2018-03-22T00:08:40.960Z,72.47
2018-03-22T00:10:41.976Z,66.90
2018-03-22T00:12:43.064Z,70.67
2018-03-22T00:14:44.042Z,55.07
2018-03-22T00:16:45.149Z,67.40
2018-03-22T00:18:47.080Z,64.67
2018-03-22T00:20:48.065Z,59.33
2018-03-22T00:22:49.938Z,73.18
2018-03-22T00:24:50.937Z,57.40
2018-03-22T00:26:51.908Z,62.83
2018-03-22T00:28:53.705Z,66.07
2018-03-22T00:30:54.729Z,57.13
2018-03-22T00:32:55.720Z,59.60
2018-03-22T00:34:56.881Z,63.72
2018-03-22T00:36:57.937Z,54.10
2018-03-22T00:38:58.935Z,55.40
2018-03-22T00:40:59.939Z,40.87
2018-03-22T00:43:01.227Z,45.73
2018-03-22T00:45:03.024Z,45.37
2018-03-22T00:47:04.242Z,44.23
2018-03-22T00:49:06.162Z,34.17
2018-03-22T00:51:07.149Z,48.43
2018-03-22T00:53:08.668Z,43.77
2018-03-22T00:55:09.683Z,46.53
2018-03-22T00:57:10.764Z,36.33
2018-03-22T00:59:11.760Z,36.73
2018-03-22T01:01:13.499Z,41.23
2018-03-22T01:03:14.501Z,34.57
2018-03-22T01:05:15.534Z,39.93
2018-03-22T01:07:16.540Z,39.47
2018-03-22T01:09:17.542Z,38.60
2018-03-22T01:11:18.563Z,36.80
2018-03-22T01:13:19.542Z,35.30
2018-03-22T01:15:20.600Z,30.17
2018-03-22T01:17:22.283Z,32.00
2018-03-22T01:19:23.512Z,36.97
2018-03-22T01:21:24.485Z,37.53
2018-03-22T01:23:25.520Z,33.77
2018-03-22T01:25:26.476Z,32.07
2018-03-22T01:27:27.467Z,33.90
2018-03-22T01:29:28.519Z,35.83
2018-03-22T01:31:29.520Z,39.30
2018-03-22T01:33:30.601Z,37.70
2018-03-22T01:35:31.583Z,32.10
2018-03-22T01:37:32.825Z,32.73
2018-03-22T01:39:33.835Z,44.03
2018-03-22T01:41:36.193Z,40.67
2018-03-22T01:43:41.058Z,45.33
2018-03-22T01:45:42.929Z,39.63
2018-03-22T01:47:43.945Z,49.13
2018-03-22T01:49:44.979Z,37.93
2018-03-22T01:51:46.052Z,36.90
2018-03-22T01:53:47.059Z,33.97
2018-03-22T01:55:48.093Z,37.80
2018-03-22T01:57:49.160Z,38.80
2018-03-22T01:59:50.215Z,41.17
2018-03-22T02:01:51.209Z,43.00
2018-03-22T02:03:52.154Z,32.13
2018-03-22T02:05:53.146Z,37.20
2018-03-22T02:07:54.135Z,31.17
2018-03-22T02:09:55.128Z,38.47
2018-03-22T02:11:56.118Z,36.90
2018-03-22T02:13:57.121Z,37.33
2018-03-22T02:15:58.128Z,34.67
2018-03-22T02:17:59.115Z,39.55
2018-03-22T02:20:00.206Z,35.20
2018-03-22T02:22:01.505Z,34.63
2018-03-22T02:24:02.500Z,46.05
2018-03-22T02:26:03.597Z,33.43
2018-03-22T02:28:04.643Z,38.97
2018-03-22T02:30:05.730Z,41.17
2018-03-22T02:32:06.711Z,41.37
2018-03-22T02:34:07.694Z,32.50
2018-03-22T02:36:08.965Z,39.70
2018-03-22T02:38:10.012Z,39.77
2018-03-22T02:40:11.001Z,37.23
2018-03-22T02:42:11.991Z,44.05
2018-03-22T02:44:12.951Z,37.03
2018-03-22T02:46:14.676Z,48.40
2018-03-22T02:48:15.694Z,44.45
2018-03-22T02:50:16.715Z,42.87
2018-03-22T02:52:17.811Z,46.40
2018-03-22T02:54:18.822Z,54.73
2018-03-22T02:56:19.807Z,44.97
2018-03-22T02:58:21.644Z,43.33
2018-03-22T03:00:22.617Z,38.90
2018-03-22T03:02:23.723Z,46.63
2018-03-22T03:04:24.748Z,41.97
2018-03-22T03:06:25.886Z,36.67
2018-03-22T03:08:27.009Z,42.72
2018-03-22T03:10:28.767Z,38.93
2018-03-22T03:12:29.779Z,42.40
2018-03-22T03:14:30.803Z,38.60
2018-03-22T03:16:31.796Z,31.13
2018-03-22T03:18:32.796Z,31.13
2018-03-22T03:20:33.797Z,36.95
2018-03-22T03:22:34.927Z,35.87
2018-03-22T03:24:35.903Z,34.50
2018-03-22T03:26:36.876Z,35.10
2018-03-22T03:28:37.875Z,29.03
2018-03-22T03:30:38.976Z,33.23
2018-03-22T03:32:39.939Z,39.43
2018-03-22T03:34:40.923Z,36.57
2018-03-22T03:36:42.025Z,35.40
2018-03-22T03:38:43.772Z,43.80
2018-03-22T03:40:44.739Z,48.47
2018-03-22T03:42:45.732Z,41.23
2018-03-22T03:44:46.707Z,43.23
2018-03-22T03:46:47.728Z,47.37
2018-03-22T03:48:49.528Z,48.30
2018-03-22T03:50:51.151Z,53.95
2018-03-22T03:52:52.295Z,34.10
2018-03-22T03:54:53.299Z,56.53
2018-03-22T03:56:54.302Z,54.63
2018-03-22T03:58:56.086Z,55.17
2018-03-22T04:00:57.875Z,51.23
2018-03-22T04:02:59.585Z,57.73
2018-03-22T04:05:00.693Z,50.00
2018-03-22T04:07:01.869Z,49.77
2018-03-22T04:09:03.092Z,61.63
2018-03-22T04:11:04.100Z,66.62
2018-03-22T04:13:05.995Z,62.40
2018-03-22T04:15:08.240Z,51.50
2018-03-22T04:17:11.481Z,72.80
2018-03-22T04:19:12.587Z,89.13
2018-03-22T04:21:14.336Z,51.53
2018-03-22T04:23:15.288Z,59.00
2018-03-22T04:25:16.334Z,61.90
2018-03-22T04:27:18.355Z,56.60
2018-03-22T04:29:19.351Z,59.77
2018-03-22T04:31:20.359Z,65.17
2018-03-22T04:33:21.357Z,66.60
2018-03-22T04:35:23.122Z,65.93
2018-03-22T04:37:24.084Z,80.53
2018-03-22T04:39:25.081Z,69.00
2018-03-22T04:41:26.052Z,66.20
2018-03-22T04:43:27.056Z,77.12
2018-03-22T04:45:28.076Z,76.40
2018-03-22T04:47:29.592Z,68.57
2018-03-22T04:49:30.565Z,76.40
2018-03-22T04:51:33.048Z,72.50
2018-03-22T04:53:34.755Z,74.87
2018-03-22T04:55:35.701Z,69.20
2018-03-22T04:57:37.476Z,67.80
2018-03-22T04:59:38.478Z,61.17
2018-03-22T05:01:39.502Z,52.60
2018-03-22T05:03:40.411Z,87.45
2018-03-22T05:05:41.342Z,83.40
2018-03-22T05:07:43.849Z,76.73
2018-03-22T05:09:44.829Z,77.83
2018-03-22T05:11:46.531Z,66.37
2018-03-22T05:13:49.389Z,67.77
2018-03-22T05:15:50.343Z,68.47
2018-03-22T05:17:51.331Z,76.43
2018-03-22T05:19:52.282Z,59.87
2018-03-22T05:21:53.222Z,61.83
2018-03-22T05:23:54.232Z,104.60
2018-03-22T05:25:55.204Z,77.77
2018-03-22T05:27:56.157Z,67.80
2018-03-22T05:29:57.107Z,101.97
2018-03-22T05:31:58.083Z,79.87
2018-03-22T05:33:59.022Z,87.73
2018-03-22T05:36:00.067Z,85.97
2018-03-22T05:38:01.070Z,76.50
2018-03-22T05:40:02.199Z,61.70
2018-03-22T05:42:03.177Z,95.93
2018-03-22T05:44:04.168Z,74.87
2018-03-22T05:46:05.127Z,83.70
2018-03-22T05:48:06.968Z,86.83
2018-03-22T05:50:07.945Z,82.63
2018-03-22T05:52:09.638Z,74.90
2018-03-22T05:54:10.602Z,76.97
2018-03-22T05:56:12.354Z,75.07
2018-03-22T05:58:13.327Z,72.57
2018-03-22T06:00:14.693Z,87.63
2018-03-22T06:02:16.119Z,76.73
2018-03-22T06:04:17.110Z,79.53
2018-03-22T06:06:18.981Z,81.67
2018-03-22T06:08:20.008Z,77.80
2018-03-22T06:10:20.955Z,80.80
2018-03-22T06:12:21.907Z,71.33
2018-03-22T06:14:22.897Z,70.37
2018-03-22T06:16:23.856Z,75.37
2018-03-22T06:18:24.992Z,76.17
2018-03-22T06:20:25.973Z,63.27
2018-03-22T06:22:26.936Z,85.38
2018-03-22T06:24:27.902Z,75.50
2018-03-22T06:26:29.612Z,75.10
2018-03-22T06:28:30.567Z,83.40
2018-03-22T06:30:31.551Z,109.30
2018-03-22T06:32:33.261Z,82.10
2018-03-22T06:34:34.986Z,74.03
2018-03-22T06:36:36.793Z,75.07
2018-03-22T06:38:37.798Z,70.63
2018-03-22T06:40:39.665Z,49.43
2018-03-22T06:42:41.364Z,71.67
2018-03-22T06:44:42.327Z,56.90
2018-03-22T06:46:43.275Z,52.90
2018-03-22T06:48:44.284Z,54.90
2018-03-22T06:50:45.357Z,67.30
2018-03-22T06:52:46.369Z,55.63
2018-03-22T06:54:47.342Z,52.53
2018-03-22T06:56:48.279Z,55.75
2018-03-22T06:58:49.264Z,47.67
2018-03-22T07:00:50.227Z,58.13
2018-03-22T07:02:51.155Z,48.93
2018-03-22T07:04:52.177Z,53.67
2018-03-22T07:06:53.178Z,46.90
2018-03-22T07:08:54.077Z,47.27
2018-03-22T07:10:55.065Z,48.27
2018-03-22T07:12:56.002Z,50.77
2018-03-22T07:14:56.943Z,55.50
2018-03-22T07:16:58.025Z,53.17
2018-03-22T07:18:59.975Z,45.03
2018-03-22T07:21:01.703Z,46.30
2018-03-22T07:23:03.534Z,44.20
2018-03-22T07:25:05.556Z,48.47
2018-03-22T07:27:06.643Z,52.60
2018-03-22T07:29:08.512Z,37.70
2018-03-22T07:31:09.485Z,59.35
2018-03-22T07:33:10.419Z,45.73
2018-03-22T07:35:11.360Z,38.73
2018-03-22T07:37:12.294Z,43.50
2018-03-22T07:39:13.254Z,41.17
2018-03-22T07:41:14.195Z,40.43
2018-03-22T07:43:21.202Z,47.70
2018-03-22T07:45:22.170Z,43.00
2018-03-22T07:47:23.197Z,37.77
2018-03-22T07:49:24.143Z,32.57
2018-03-22T07:51:25.834Z,36.70
2018-03-22T07:53:27.558Z,38.57
2018-03-22T07:55:28.527Z,35.70
2018-03-22T07:57:29.598Z,35.17
2018-03-22T07:59:30.575Z,30.27
2018-03-22T08:01:32.282Z,39.13
2018-03-22T08:03:33.207Z,33.00
2018-03-22T08:05:34.270Z,34.07
2018-03-22T08:07:35.238Z,43.10
2018-03-22T08:09:36.211Z,36.40
2018-03-22T08:11:37.151Z,42.70
2018-03-22T08:13:38.859Z,39.63
2018-03-22T08:15:39.829Z,66.50
2018-03-22T08:17:40.791Z,48.00
2018-03-22T08:19:41.732Z,41.60
2018-03-22T08:21:42.729Z,64.97
2018-03-22T08:23:43.687Z,51.00
2018-03-22T08:25:44.700Z,44.90
2018-03-22T08:27:45.687Z,50.00
2018-03-22T08:29:46.766Z,40.97
2018-03-22T08:31:47.776Z,42.07
2018-03-22T08:33:48.738Z,44.70
2018-03-22T08:35:50.849Z,45.60
2018-03-22T08:37:52.688Z,42.80
2018-03-22T08:39:53.861Z,37.53
2018-03-22T08:41:55.570Z,40.03
2018-03-22T08:43:56.524Z,37.53
2018-03-22T08:45:57.900Z,36.57
2018-03-22T08:47:58.862Z,37.90
2018-03-22T08:49:59.843Z,35.13
2018-03-22T08:52:00.808Z,35.37
2018-03-22T08:54:01.819Z,37.03
2018-03-22T08:56:03.510Z,42.00
2018-03-22T08:58:04.523Z,32.10
2018-03-22T09:00:05.467Z,49.20
2018-03-22T09:02:06.460Z,51.70
2018-03-22T09:04:07.391Z,33.90
2018-03-22T09:06:08.581Z,39.55
2018-03-22T09:08:09.609Z,36.00
2018-03-22T09:10:10.516Z,43.13
2018-03-22T09:12:12.199Z,33.30
2018-03-22T09:14:13.222Z,34.93
2018-03-22T09:16:14.233Z,36.67
2018-03-22T09:18:15.206Z,33.47
2018-03-22T09:20:16.162Z,37.47
2018-03-22T09:22:18.036Z,35.50
2018-03-22T09:24:19.042Z,35.00
2018-03-22T09:26:20.655Z,33.23
2018-03-22T09:28:21.652Z,37.97
2018-03-22T09:30:22.719Z,38.13
2018-03-22T09:32:23.718Z,40.03
2018-03-22T09:34:24.703Z,36.10
2018-03-22T09:36:25.908Z,31.13
2018-03-22T09:38:26.903Z,32.73
2018-03-22T09:40:28.005Z,46.23
2018-03-22T09:42:29.011Z,39.63
2018-03-22T09:44:30.003Z,40.50
2018-03-22T09:46:30.987Z,44.20
2018-03-22T09:48:31.975Z,40.67
2018-03-22T09:50:34.321Z,39.63
2018-03-22T09:52:42.331Z,32.07
2018-03-22T09:54:43.333Z,32.73
2018-03-22T09:56:44.356Z,31.87
2018-03-22T09:58:45.344Z,33.23
2018-03-22T10:00:49.468Z,29.63
2018-03-22T10:02:51.115Z,26.57
2018-03-22T10:04:52.961Z,29.05
2018-03-22T10:06:53.974Z,27.60
2018-03-22T10:08:54.927Z,27.27
2018-03-22T10:10:55.887Z,27.00
2018-03-22T10:12:57.240Z,25.27
2018-03-22T10:14:58.284Z,21.30
2018-03-22T10:17:00.046Z,26.80
2018-03-22T10:19:02.020Z,39.53
2018-03-22T10:21:05.172Z,29.73
2018-03-22T10:23:06.244Z,26.00
2018-03-22T10:25:07.250Z,35.20
2018-03-22T10:27:11.644Z,31.47
2018-03-22T10:29:12.792Z,29.37
2018-03-22T10:31:13.828Z,29.10
2018-03-22T10:33:15.600Z,26.23
2018-03-22T10:35:19.470Z,26.40
2018-03-22T10:37:20.611Z,27.50
2018-03-22T10:39:21.569Z,36.30
2018-03-22T10:41:22.546Z,30.00
2018-03-22T10:43:29.498Z,32.07
2018-03-22T10:45:30.481Z,37.03
2018-03-22T10:47:32.596Z,34.10
2018-03-22T10:49:35.711Z,31.17
2018-03-22T10:51:36.692Z,26.70
2018-03-22T10:53:37.693Z,29.17
2018-03-22T10:55:38.644Z,27.93
2018-03-22T10:57:39.639Z,26.50
2018-03-22T10:59:41.413Z,25.90
2018-03-22T11:01:49.320Z,30.83
2018-03-22T11:03:52.412Z,35.37
2018-03-22T11:05:53.395Z,32.10
2018-03-22T11:07:56.862Z,28.30
2018-03-22T11:09:57.888Z,28.30
2018-03-22T11:11:58.820Z,31.40
2018-03-22T11:13:59.803Z,32.93
2018-03-22T11:16:01.504Z,29.73
2018-03-22T11:18:02.482Z,35.60
2018-03-22T11:20:07.500Z,30.73
2018-03-22T11:22:08.626Z,36.40
2018-03-22T11:24:09.609Z,28.07
2018-03-22T11:26:13.532Z,28.10
2018-03-22T11:28:15.445Z,29.00
2018-03-22T11:30:19.539Z,28.33
2018-03-22T11:32:21.632Z,30.97
2018-03-22T11:34:29.390Z,30.27
2018-03-22T11:36:32.521Z,32.83
2018-03-22T11:38:36.729Z,25.70
2018-03-22T11:40:37.716Z,26.90
2018-03-22T11:42:38.666Z,25.67
2018-03-22T11:44:40.883Z,25.10
2018-03-22T11:46:42.747Z,29.73
2018-03-22T11:48:43.771Z,29.60
2018-03-22T11:50:44.722Z,26.03
2018-03-22T11:52:45.691Z,41.33
2018-03-22T11:54:52.229Z,30.03
2018-03-22T11:59:35.517Z,33.17
2018-03-22T12:01:36.517Z,27.80
2018-03-22T12:03:40.833Z,24.73
2018-03-22T12:05:42.195Z,31.35
2018-03-22T12:07:43.164Z,31.40
2018-03-22T12:09:44.879Z,33.27
2018-03-22T12:11:46.186Z,23.17
2018-03-22T12:13:47.217Z,26.50
2018-03-22T12:15:48.520Z,27.43
2018-03-22T12:17:54.034Z,27.10
2018-03-22T12:20:19.243Z,24.30
2018-03-22T12:22:20.259Z,33.63
2018-03-22T12:24:21.224Z,30.10
2018-03-22T12:26:22.207Z,37.28
2018-03-22T12:28:23.211Z,27.17
2018-03-22T12:30:24.183Z,30.07
2018-03-22T12:32:25.170Z,34.80
2018-03-22T12:34:34.184Z,33.20
2018-03-22T12:36:35.519Z,37.30
2018-03-22T12:41:15.970Z,36.90
2018-03-22T12:43:17.114Z,33.30
2018-03-22T12:45:18.053Z,31.90
2018-03-22T12:47:19.038Z,39.47
2018-03-22T12:49:20.785Z,34.00
2018-03-22T12:51:21.759Z,31.93
2018-03-22T12:53:22.710Z,31.90
2018-03-22T12:55:26.772Z,32.53
2018-03-22T12:57:47.997Z,34.10
2018-03-22T12:59:48.955Z,31.57
2018-03-22T13:03:59.907Z,34.63
2018-03-22T13:06:02.413Z,35.97
2018-03-22T13:08:04.219Z,47.42
2018-03-22T13:10:05.174Z,39.17
2018-03-22T13:12:06.147Z,33.37
2018-03-22T13:14:07.074Z,40.78
2018-03-22T13:16:08.015Z,37.10
2018-03-22T13:18:08.954Z,31.03
2018-03-22T13:20:10.660Z,34.40
2018-03-22T13:22:12.887Z,40.50
2018-03-22T13:24:14.681Z,32.10
2018-03-22T13:26:20.973Z,34.20
2018-03-22T13:28:24.568Z,37.57
2018-03-22T13:30:25.679Z,41.17
2018-03-22T13:32:26.699Z,38.07
2018-03-22T13:34:27.704Z,49.60
2018-03-22T13:36:28.693Z,38.30
2018-03-22T13:38:29.674Z,37.93
2018-03-22T13:40:31.435Z,49.00
2018-03-22T13:42:33.193Z,46.40
2018-03-22T13:44:37.617Z,40.47
2018-03-22T13:46:42.906Z,38.07
2018-03-22T13:48:47.147Z,47.50
2018-03-22T13:50:54.538Z,44.10
2018-03-22T13:52:56.535Z,51.00
2018-03-22T13:54:57.559Z,37.10
2018-03-22T13:56:58.592Z,48.80
2018-03-22T13:58:59.568Z,42.23
2018-03-22T14:01:00.558Z,41.37
2018-03-22T14:03:02.304Z,39.87
2018-03-22T14:05:03.940Z,36.27
2018-03-22T14:07:05.142Z,37.00
2018-03-22T14:09:06.179Z,41.93
2018-03-22T14:11:07.915Z,43.70
2018-03-22T14:13:10.308Z,40.87
2018-03-22T14:15:12.566Z,39.27
2018-03-22T14:17:15.844Z,34.53
2018-03-22T14:19:16.921Z,40.57
2018-03-22T14:21:17.934Z,32.90
2018-03-22T14:23:19.719Z,38.50
2018-03-22T14:25:20.740Z,33.97
2018-03-22T14:27:21.716Z,31.27
2018-03-22T14:29:24.324Z,39.27
2018-03-22T14:31:27.179Z,48.13
2018-03-22T14:33:28.184Z,42.50
2018-03-22T14:35:29.127Z,58.53
2018-03-22T14:37:30.096Z,33.63
2018-03-22T14:39:31.208Z,36.50
2018-03-22T14:41:32.186Z,28.20
2018-03-22T14:43:33.207Z,28.77
2018-03-22T14:45:34.892Z,31.90
2018-03-22T14:47:35.880Z,44.80
2018-03-22T14:52:08.716Z,32.27
2018-03-22T14:54:10.495Z,34.60
2018-03-22T14:56:13.143Z,26.87
2018-03-22T14:58:14.156Z,31.60
2018-03-22T15:00:15.188Z,49.20
2018-03-22T15:02:16.391Z,41.70
2018-03-22T15:04:17.463Z,34.77
2018-03-22T15:06:22.869Z,35.73
2018-03-22T15:08:23.943Z,38.60
2018-03-22T15:10:25.260Z,28.03
2018-03-22T15:12:26.246Z,30.27
2018-03-22T15:14:29.913Z,39.00
2018-03-22T15:16:31.121Z,37.22
2018-03-22T15:18:32.100Z,38.20
2018-03-22T15:20:33.130Z,23.13
2018-03-22T15:22:34.807Z,19.15
2018-03-22T15:24:35.818Z,18.67
2018-03-22T15:26:36.857Z,13.97
2018-03-22T15:28:37.895Z,14.27
2018-03-22T15:30:38.856Z,13.70
2018-03-22T15:32:39.790Z,12.30
2018-03-22T15:34:40.779Z,12.10
2018-03-22T15:36:42.454Z,13.00
2018-03-22T15:38:43.407Z,12.13
2018-03-22T15:40:44.347Z,14.87
2018-03-22T15:42:45.288Z,14.95
2018-03-22T15:44:46.265Z,13.37
2018-03-22T15:46:47.207Z,13.13
2018-03-22T15:48:48.172Z,11.70
2018-03-22T15:50:49.139Z,15.20
2018-03-22T15:52:50.135Z,16.50
2018-03-22T15:54:51.141Z,12.97
2018-03-22T15:56:52.927Z,16.60
2018-03-22T15:58:53.913Z,16.00
2018-03-22T16:00:54.940Z,12.40
2018-03-22T16:02:55.879Z,14.50
2018-03-22T16:04:56.839Z,14.73
2018-03-22T16:06:57.855Z,14.70
2018-03-22T16:08:58.865Z,14.70
2018-03-22T16:10:59.972Z,14.27
2018-03-22T16:13:00.943Z,12.13
2018-03-22T16:15:01.899Z,13.62
2018-03-22T16:17:02.839Z,16.90
2018-03-22T16:19:03.770Z,15.80
2018-03-22T16:21:04.788Z,14.13
2018-03-22T16:23:05.798Z,16.10
2018-03-22T16:25:06.991Z,16.10
2018-03-22T16:27:08.036Z,18.30
2018-03-22T16:29:09.024Z,13.63
2018-03-22T16:31:09.991Z,16.83
2018-03-22T16:33:11.076Z,13.90
2018-03-22T16:35:12.156Z,14.57
2018-03-22T16:37:13.199Z,18.83
2018-03-22T16:39:14.132Z,19.80
2018-03-22T16:41:15.074Z,22.23
2018-03-22T16:45:41.706Z,14.03
2018-03-22T16:47:43.420Z,11.67
2018-03-22T16:49:45.458Z,18.08
2018-03-22T16:51:46.502Z,15.60
2018-03-22T16:53:48.230Z,11.80
2018-03-22T16:55:49.264Z,12.13
2018-03-22T16:57:50.238Z,12.30
2018-03-22T16:59:51.308Z,13.20
2018-03-22T17:04:05.586Z,14.67
2018-03-22T17:06:07.529Z,13.33
2018-03-22T17:08:08.505Z,14.93
2018-03-22T17:10:10.205Z,14.37
2018-03-22T17:12:11.186Z,11.63
2018-03-22T17:14:12.144Z,10.60
2018-03-22T17:16:13.117Z,11.30
2018-03-22T17:18:14.102Z,18.33
2018-03-22T17:20:15.803Z,9.60
2018-03-22T17:22:17.496Z,14.20
2018-03-22T17:24:18.440Z,9.33
2018-03-22T17:26:19.428Z,13.17
2018-03-22T17:28:20.411Z,11.10
2018-03-22T17:30:22.157Z,13.13
2018-03-22T17:32:28.383Z,11.70
2018-03-22T17:34:32.657Z,11.97
2018-03-22T17:36:34.387Z,13.63
2018-03-22T17:38:35.800Z,12.57
2018-03-22T17:40:36.825Z,14.13
2018-03-22T17:42:37.784Z,13.30
2018-03-22T17:44:39.491Z,11.93
2018-03-22T17:46:40.483Z,17.57
2018-03-22T17:48:41.447Z,13.90
2018-03-22T17:50:43.156Z,17.30
2018-03-22T17:52:44.421Z,14.90
2018-03-22T17:54:45.441Z,15.40
2018-03-22T17:56:47.447Z,22.17
2018-03-22T17:58:48.430Z,16.30
2018-03-22T18:00:50.124Z,18.70
2018-03-22T18:02:51.140Z,16.00
2018-03-22T18:04:55.856Z,19.92
2018-03-22T18:07:04.210Z,15.83
2018-03-22T18:09:05.319Z,18.37
2018-03-22T18:11:06.275Z,17.43
2018-03-22T18:13:07.300Z,20.98
2018-03-22T18:15:08.387Z,22.60
2018-03-22T18:17:09.358Z,18.77
2018-03-22T18:19:10.445Z,23.30
2018-03-22T18:21:11.424Z,20.30
2018-03-22T18:23:13.131Z,13.50
2018-03-22T18:25:14.123Z,18.43
2018-03-22T18:27:15.892Z,15.43
2018-03-22T18:29:17.588Z,16.00
2018-03-22T18:31:18.792Z,17.50
2018-03-22T18:33:19.753Z,20.57
2018-03-22T18:35:21.465Z,19.20
2018-03-22T18:37:22.455Z,16.93
2018-03-22T18:39:24.188Z,17.87
2018-03-22T18:41:25.160Z,16.07
2018-03-22T18:43:26.100Z,16.80
2018-03-22T18:45:27.068Z,17.77
2018-03-22T18:47:28.771Z,20.00
2018-03-22T18:49:29.732Z,18.53
2018-03-22T18:51:30.680Z,18.00
2018-03-22T18:53:31.733Z,20.67
2018-03-22T18:55:32.737Z,20.60
2018-03-22T18:57:34.420Z,25.23
2018-03-22T18:59:35.372Z,21.00
2018-03-22T19:01:37.358Z,24.60
2018-03-22T19:03:38.330Z,25.87
2018-03-22T19:05:40.037Z,20.47
2018-03-22T19:07:40.985Z,24.77
2018-03-22T19:09:42.041Z,19.23
2018-03-22T19:11:43.020Z,23.40
2018-03-22T19:13:44.072Z,25.45
2018-03-22T19:15:45.209Z,25.30
2018-03-22T19:17:46.945Z,24.00
2018-03-22T19:19:47.931Z,23.67
2018-03-22T19:21:48.913Z,22.63
2018-03-22T19:23:50.621Z,26.20
2018-03-22T19:25:51.792Z,28.00
2018-03-22T19:27:52.789Z,26.53
2018-03-22T19:29:53.876Z,24.97
2018-03-22T19:31:54.880Z,29.27
2018-03-22T19:33:56.001Z,30.35
2018-03-22T19:35:57.012Z,28.83
2018-03-22T19:37:57.999Z,30.90
2018-03-22T19:39:59.749Z,26.40
2018-03-22T19:42:01.613Z,32.60
2018-03-22T19:44:03.321Z,27.60
2018-03-22T19:46:04.316Z,29.40
2018-03-22T19:48:05.314Z,29.90
2018-03-22T19:50:06.449Z,33.37
2018-03-22T19:52:07.432Z,32.57
2018-03-22T19:54:08.458Z,33.83
2018-03-22T19:56:10.461Z,33.10
2018-03-22T19:58:11.412Z,33.13
2018-03-22T20:00:12.404Z,32.80
2018-03-22T20:02:14.101Z,34.03
2018-03-22T20:04:15.238Z,35.10
2018-03-22T20:06:16.330Z,32.10
2018-03-22T20:08:17.328Z,32.30
2018-03-22T20:10:18.307Z,31.90
2018-03-22T20:12:19.297Z,34.57
2018-03-22T20:14:20.318Z,37.05
2018-03-22T20:16:21.227Z,31.63
2018-03-22T20:18:22.208Z,37.40
2018-03-22T20:20:23.193Z,31.53
2018-03-22T20:22:24.209Z,32.90
2018-03-22T20:24:25.213Z,27.93
2018-03-22T20:26:26.151Z,35.50
2018-03-22T20:28:27.140Z,30.20
2018-03-22T20:30:28.130Z,37.33
2018-03-22T20:32:29.211Z,34.33
2018-03-22T20:34:30.299Z,33.07
2018-03-22T20:36:31.367Z,34.40
2018-03-22T20:38:32.370Z,57.93
2018-03-22T20:40:33.380Z,41.15
2018-03-22T20:42:34.421Z,44.60
2018-03-22T20:44:35.516Z,35.33
2018-03-22T20:46:36.487Z,42.60
2018-03-22T20:48:38.331Z,37.10
2018-03-22T20:50:39.340Z,43.70
2018-03-22T20:52:40.475Z,36.20
2018-03-22T20:54:41.466Z,48.92
2018-03-22T20:56:42.466Z,46.70
2018-03-22T20:58:43.437Z,47.23
2018-03-22T21:00:44.407Z,41.30
2018-03-22T21:02:45.564Z,44.23
2018-03-22T21:04:46.578Z,43.00
2018-03-22T21:06:47.556Z,48.05
2018-03-22T21:08:49.113Z,42.30
2018-03-22T21:10:50.153Z,46.03
2018-03-22T21:12:51.309Z,45.70
2018-03-22T21:14:52.395Z,60.17
2018-03-22T21:16:53.510Z,53.50
2018-03-22T21:18:55.331Z,52.67
2018-03-22T21:20:57.531Z,55.10
2018-03-22T21:22:58.539Z,58.13
2018-03-22T21:24:59.532Z,68.33
2018-03-22T21:27:11.011Z,55.05
2018-03-22T21:29:12.066Z,53.20
2018-03-22T21:31:13.796Z,66.30
2018-03-22T21:33:14.886Z,57.13
2018-03-22T21:35:15.938Z,55.87
2018-03-22T21:37:16.888Z,58.10
2018-03-22T21:39:17.840Z,58.53
2018-03-22T21:41:18.841Z,57.50
2018-03-22T21:43:20.606Z,63.20
2018-03-22T21:45:22.277Z,60.67
2018-03-22T21:47:29.774Z,62.07
2018-03-22T21:49:33.891Z,59.47
2018-03-22T21:51:34.984Z,62.87
2018-03-22T21:53:35.967Z,62.10
2018-03-22T21:55:37.725Z,63.73
2018-03-22T21:57:39.461Z,56.50
2018-03-22T21:59:40.448Z,57.80
2018-03-22T22:01:41.436Z,61.55
2018-03-22T22:03:42.433Z,62.53
2018-03-22T22:05:44.224Z,54.43
2018-03-22T22:07:45.262Z,67.70
2018-03-22T22:09:46.228Z,64.97
2018-03-22T22:11:47.242Z,52.43
2018-03-22T22:13:48.241Z,60.10
2018-03-22T22:15:49.221Z,55.70
2018-03-22T22:17:50.211Z,60.23
2018-03-22T22:19:51.525Z,58.73
2018-03-22T22:21:53.681Z,48.23
2018-03-22T22:23:54.768Z,50.23
2018-03-22T22:25:55.945Z,51.70
2018-03-22T22:27:57.133Z,54.20
2018-03-22T22:29:58.885Z,51.83
2018-03-22T22:31:59.858Z,53.03
2018-03-22T22:34:01.793Z,60.58
2018-03-22T22:36:02.798Z,55.77
2018-03-22T22:38:04.579Z,58.57
2018-03-22T22:40:05.591Z,49.73
2018-03-22T22:42:07.283Z,51.83
2018-03-22T22:44:08.291Z,49.87
2018-03-22T22:46:10.117Z,55.70
2018-03-22T22:48:11.135Z,60.65
2018-03-22T22:50:12.167Z,57.80
2018-03-22T22:52:13.128Z,50.23
2018-03-22T22:54:14.256Z,52.25
2018-03-22T22:56:15.252Z,51.60
2018-03-22T22:58:16.209Z,51.00
2018-03-22T23:00:17.175Z,52.37
2018-03-22T23:02:18.288Z,44.57
2018-03-22T23:04:19.280Z,50.93
2018-03-22T23:06:20.262Z,51.70
2018-03-22T23:08:22.205Z,47.63
2018-03-22T23:10:23.269Z,44.43
2018-03-22T23:12:24.397Z,46.00
2018-03-22T23:14:25.403Z,42.53
2018-03-22T23:16:26.401Z,42.93
2018-03-22T23:18:27.537Z,43.30
2018-03-22T23:20:29.382Z,43.20
2018-03-22T23:22:31.270Z,43.08
2018-03-22T23:24:33.193Z,40.80
2018-03-22T23:26:35.123Z,33.27
2018-03-22T23:28:37.017Z,40.30
2018-03-22T23:30:38.246Z,32.83
2018-03-22T23:32:39.916Z,35.47
2018-03-22T23:34:40.921Z,28.23
2018-03-22T23:36:42.008Z,26.47
2018-03-22T23:38:42.977Z,23.80
2018-03-22T23:40:43.988Z,26.97
2018-03-22T23:42:45.044Z,27.87
2018-03-22T23:44:46.167Z,26.50
2018-03-22T23:46:48.056Z,26.57
2018-03-22T23:48:49.862Z,33.55
2018-03-22T23:50:50.861Z,29.23
2018-03-22T23:52:52.572Z,35.60
2018-03-22T23:54:53.610Z,33.30
2018-03-22T23:56:54.584Z,32.20
2018-03-22T23:58:55.568Z,35.43
